Jorge De Sena — CSKH — position and weather

sailwx.info

Track history (hours):
 
Tides and Currents Weather Stations Pressure Air Temp Water Temp Dewpoint Dewpoint Depression Visibility Wind Speed Wind Dir Waves Ship Positions

Jorge De Sena

Last reported at 2018-Jun-15 18:59 UTC. Time now 2018-Jul-17 05:28 UTC.
Position N 38°39' W 009°05'.
Warning: this ship's position is 31 days out of date.

Length 49 m; draft 1.7 m.

Type: Passenger vessel. MMSI: 263701440.

Date/timePositionNaut miles runAvg speedWind from/ knotsBaromVisibWave heightAir tempDewpointWater temp
2018-Jun-15 18:59N 38°39' W 009°05'4 8.4
2018-Jun-15 18:30N 38°42' W 009°08'4 8.3
2018-Jun-15 18:00N 38°39' W 009°05'4 8.1
2018-Jun-15 17:31N 38°42' W 009°08'2 4.7
2018-Jun-15 17:00N 38°40' W 009°07'1 1.5
2018-Jun-15 16:31N 38°40' W 009°06'3 6.1
2018-Jun-15 16:00N 38°42' W 009°08'4 8.3
2018-Jun-15 15:30N 38°39' W 009°05'3 6.6
2018-Jun-15 15:00N 38°41' W 009°08'3 5.1
2018-Jun-15 14:31N 38°39' W 009°06'1 1.5
2018-Jun-15 14:00N 38°39' W 009°05'0 0.0
2018-Jun-15 13:30N 38°39' W 009°05'0 0.0
2018-Jun-15 13:00N 38°39' W 009°05'0 0.0
2018-Jun-15 12:30N 38°39' W 009°05'0 0.0
2018-Jun-15 12:00N 38°39' W 009°05'0 0.0
2018-Jun-15 11:30N 38°39' W 009°05'0 0.0
2018-Jun-15 11:00N 38°39' W 009°05'0 0.0
2018-Jun-15 10:30N 38°39' W 009°05'4 7.8
2018-Jun-15 10:00N 38°42' W 009°08'4 7.5
2018-Jun-15 09:30N 38°39' W 009°05'3 6.1
2018-Jun-15 09:00N 38°41' W 009°08'3 5.9
2018-Jun-15 08:30N 38°39' W 009°05'2 4.6
2018-Jun-15 08:01N 38°40' W 009°08'2 3.7
2018-Jun-15 07:30N 38°39' W 009°06'3 6.8
2018-Jun-15 07:00N 38°42' W 009°08'4 8.3
2018-Jun-15 06:31N 38°39' W 009°05'4 8.1
2018-Jun-15 06:00N 38°42' W 009°08'4 8.5
2018-Jun-15 05:31N 38°39' W 009°05'4 7.4
2018-Jun-15 05:00N 38°42' W 009°08'4 0.4
2018-Jun-14 20:10N 38°39' W 009°05'211.6
2018-Jun-14 20:00N 38°40' W 009°07'1 1.1
2018-Jun-14 19:31N 38°40' W 009°08'3 5.1
2018-Jun-14 19:00N 38°39' W 009°05'2 3.8
2018-Jun-14 18:30N 38°40' W 009°07'1 1.7
2018-Jun-14 18:00N 38°40' W 009°06'3 6.6
2018-Jun-14 17:30N 38°42' W 009°08'4 8.3
2018-Jun-14 17:01N 38°39' W 009°05'4 7.2
2018-Jun-14 16:30N 38°42' W 009°08'2 4.3
2018-Jun-14 16:00N 38°40' W 009°07'0 0.9
2018-Jun-14 15:30N 38°40' W 009°07'2 4.8
2018-Jun-14 15:00N 38°39' W 009°05'0 0.0
2018-Jun-14 14:30N 38°39' W 009°05'3 6.6
2018-Jun-14 14:00N 38°41' W 009°08'2 4.9
2018-Jun-14 13:30N 38°39' W 009°06'3 5.3
2018-Jun-14 13:00N 38°41' W 009°08'3 5.4
2018-Jun-14 12:30N 38°39' W 009°06'4 7.0
2018-Jun-14 12:00N 38°42' W 009°08'4 8.3
2018-Jun-14 11:31N 38°39' W 009°05'3 6.7
2018-Jun-14 11:00N 38°41' W 009°08'3 6.0
2018-Jun-14 10:30N 38°39' W 009°05'0 0.9
2018-Jun-14 10:00N 38°39' W 009°05'0 0.0
2018-Jun-14 09:30N 38°39' W 009°05'4 8.1
2018-Jun-14 09:00N 38°42' W 009°08'4 7.9
2018-Jun-14 08:30N 38°39' W 009°05'4 8.4
2018-Jun-14 08:00N 38°42' W 009°08'4 7.5
2018-Jun-14 07:30N 38°39' W 009°06'2 3.7
2018-Jun-14 07:00N 38°40' W 009°07'0 0.7
2018-Jun-14 06:30N 38°40' W 009°07'1 2.1
2018-Jun-14 06:00N 38°40' W 009°06'1 2.0
2018-Jun-14 05:30N 38°39' W 009°05'0 0.0
2018-Jun-13 16:41N 38°39' W 009°05'0 0.0
2018-Jun-11 15:47N 38°39' W 009°05'1 3.3
2018-Jun-11 15:30N 38°40' W 009°06'  
2018-Jun-08 18:59N 38°39' W 009°05'4 8.5
2018-Jun-08 18:30N 38°42' W 009°08'4 8.3
2018-Jun-08 18:00N 38°39' W 009°05'4 7.3
2018-Jun-08 17:30N 38°42' W 009°08'2 3.4
2018-Jun-08 17:01N 38°40' W 009°08'2 3.0
2018-Jun-08 16:30N 38°40' W 009°06'3 6.5
2018-Jun-08 16:00N 38°42' W 009°08'4 8.3
2018-Jun-08 15:31N 38°39' W 009°05'0 0.0
2018-Jun-08 15:00N 38°39' W 009°05'0 0.1
2018-Jun-08 13:10N 38°39' W 009°05'318.9
2018-Jun-08 13:00N 38°41' W 009°08'3 6.1
2018-Jun-08 12:30N 38°39' W 009°05'0 0.3
2018-Jun-08 12:00N 38°39' W 009°05'0 0.0
2018-Jun-08 11:30N 38°39' W 009°05'0 0.0
2018-Jun-08 11:00N 38°39' W 009°05'0 0.0
2018-Jun-08 10:30N 38°39' W 009°05'0 0.0
2018-Jun-08 10:00N 38°39' W 009°05'4 7.0
2018-Jun-08 09:30N 38°42' W 009°08'3 6.3
2018-Jun-08 09:00N 38°39' W 009°06'1 1.4
2018-Jun-08 08:30N 38°39' W 009°05'3 6.3
2018-Jun-08 08:01N 38°41' W 009°08'1 2.8
2018-Jun-08 07:31N 38°40' W 009°07'1 2.8
2018-Jun-08 07:00N 38°39' W 009°05'4 7.5
2018-Jun-08 06:31N 38°42' W 009°08'4 8.0
2018-Jun-08 05:59N 38°39' W 009°05'3 6.5
2018-Jun-08 05:30N 38°41' W 009°07'3 5.8
2018-Jun-08 05:00N 38°39' W 009°05'3 6.4
2018-Jun-08 04:30N 38°42' W 009°08'3 6.9
2018-Jun-08 04:01N 38°39' W 009°05'0 0.0
2018-Jun-08 03:31N 38°39' W 009°05'0 0.0
2018-Jun-08 03:00N 38°39' W 009°05'0 0.0
2018-Jun-08 02:30N 38°39' W 009°05'0 0.0
2018-Jun-08 02:00N 38°39' W 009°05'0 0.0
2018-Jun-08 01:29N 38°39' W 009°05'4 8.7
2018-Jun-08 01:00N 38°42' W 009°08'4 8.4
2018-Jun-08 00:31N 38°39' W 009°05'4 7.5
2018-Jun-07 23:57N 38°42' W 009°08'4 9.1
2018-Jun-07 23:30N 38°39' W 009°05'4 8.5
2018-Jun-07 23:00N 38°42' W 009°08'4 8.3
2018-Jun-07 22:30N 38°39' W 009°05'3 6.8
2018-Jun-07 22:00N 38°41' W 009°08'3 5.3
2018-Jun-07 21:30N 38°39' W 009°06'3 5.1
2018-Jun-07 21:01N 38°41' W 009°08'2 4.9
2018-Jun-07 20:30N 38°39' W 009°06'1 1.9
2018-Jun-07 20:00N 38°39' W 009°05'0 0.0
2018-Jun-07 19:30N 38°39' W 009°05'4 8.5
2018-Jun-07 19:01N 38°42' W 009°08'4 8.3
2018-Jun-07 18:30N 38°39' W 009°05'4 7.7
2018-Jun-07 18:01N 38°42' W 009°08'2 4.3
2018-Jun-07 17:30N 38°40' W 009°07'1 1.7
2018-Jun-07 17:00N 38°40' W 009°06'3 6.1
2018-Jun-07 16:30N 38°42' W 009°08'4 8.3
2018-Jun-07 16:00N 38°39' W 009°05'0 0.0
2018-Jun-07 10:22N 38°39' W 009°05'0 0.0
2018-Jun-07 10:00N 38°39' W 009°05'0 0.0
2018-Jun-07 09:30N 38°39' W 009°05'0 0.2
2018-Jun-07 09:01N 38°39' W 009°05'2 4.6
2018-Jun-07 08:31N 38°40' W 009°07'2 4.6
2018-Jun-07 08:00N 38°39' W 009°05'4 8.3
2018-Jun-07 07:30N 38°42' W 009°08'4 8.4
2018-Jun-07 07:01N 38°39' W 009°05'3 6.4
2018-Jun-07 06:30N 38°41' W 009°08'3 6.6
2018-Jun-07 06:01N 38°39' W 009°05'0 0.0
2018-Jun-06 19:59N 38°39' W 009°05'4 8.4
2018-Jun-06 19:30N 38°42' W 009°08'4 8.2
2018-Jun-06 19:00N 38°39' W 009°05'4 8.5
2018-Jun-06 18:31N 38°42' W 009°08'4 7.6
2018-Jun-06 18:00N 38°39' W 009°05'2 4.3
2018-Jun-06 17:30N 38°40' W 009°07'1 1.7
2018-Jun-06 17:00N 38°41' W 009°08'3 6.3
2018-Jun-06 16:30N 38°39' W 009°05'0 0.0
2018-Jun-06 16:00N 38°39' W 009°05'4 8.1
2018-Jun-06 15:30N 38°42' W 009°08'4 8.5
2018-Jun-06 15:01N 38°39' W 009°05'3 6.6
2018-Jun-06 14:31N 38°41' W 009°08'2 4.9
2018-Jun-06 14:00N 38°39' W 009°06'3 5.4
2018-Jun-06 13:30N 38°42' W 009°08'3 5.7
2018-Jun-06 13:00N 38°39' W 009°06'3 5.4
2018-Jun-06 12:30N 38°41' W 009°08'3 5.1
2018-Jun-06 12:00N 38°39' W 009°06'3 5.4
2018-Jun-06 11:30N 38°42' W 009°08'3 5.6
2018-Jun-06 11:00N 38°39' W 009°06'3 5.2
2018-Jun-06 10:31N 38°41' W 009°08'3 5.3
2018-Jun-06 10:00N 38°39' W 009°06'1 1.5
2018-Jun-06 09:30N 38°39' W 009°05'0 0.2
2018-Jun-06 09:01N 38°39' W 009°05'4 8.3
2018-Jun-06 08:30N 38°42' W 009°08'4 8.0
2018-Jun-06 07:59N 38°39' W 009°05'4 7.8
2018-Jun-06 07:30N 38°42' W 009°08'2 3.9
2018-Jun-06 07:01N 38°40' W 009°07'1 2.8
2018-Jun-06 06:30N 38°39' W 009°06'1 1.6
2018-Jun-06 05:58N 38°39' W 009°05'0 0.0
2018-Jun-06 05:30N 38°39' W 009°05'0 0.0
2018-Jun-05 19:12N 38°39' W 009°05'0 0.6
2018-Jun-05 19:00N 38°39' W 009°05'  
Track history (hours):
 
Tides and Currents Weather Stations Pressure Air Temp Water Temp Dewpoint Dewpoint Depression Visibility Wind Speed Wind Dir Waves Ship Positions

Jorge De Sena

Last reported at 2018-Jun-15 18:59 UTC. Time now 2018-Jul-17 05:28 UTC.
Position N 38°39' W 009°05'.
Warning: this ship's position is 31 days out of date.

Length 49 m; draft 1.7 m.

Type: Passenger vessel. MMSI: 263701440.

Date/timePositionNaut miles runAvg speedWind from/ knotsBaromVisibWave heightAir tempDewpointWater temp
2018-Jun-15 18:59N 38°39' W 009°05'4 8.4
2018-Jun-15 18:30N 38°42' W 009°08'4 8.3
2018-Jun-15 18:00N 38°39' W 009°05'4 8.1
2018-Jun-15 17:31N 38°42' W 009°08'2 4.7
2018-Jun-15 17:00N 38°40' W 009°07'1 1.5
2018-Jun-15 16:31N 38°40' W 009°06'3 6.1
2018-Jun-15 16:00N 38°42' W 009°08'4 8.3
2018-Jun-15 15:30N 38°39' W 009°05'3 6.6
2018-Jun-15 15:00N 38°41' W 009°08'3 5.1
2018-Jun-15 14:31N 38°39' W 009°06'1 1.5
2018-Jun-15 14:00N 38°39' W 009°05'0 0.0
2018-Jun-15 13:30N 38°39' W 009°05'0 0.0
2018-Jun-15 13:00N 38°39' W 009°05'0 0.0
2018-Jun-15 12:30N 38°39' W 009°05'0 0.0
2018-Jun-15 12:00N 38°39' W 009°05'0 0.0
2018-Jun-15 11:30N 38°39' W 009°05'0 0.0
2018-Jun-15 11:00N 38°39' W 009°05'0 0.0
2018-Jun-15 10:30N 38°39' W 009°05'4 7.8
2018-Jun-15 10:00N 38°42' W 009°08'4 7.5
2018-Jun-15 09:30N 38°39' W 009°05'3 6.1
2018-Jun-15 09:00N 38°41' W 009°08'3 5.9
2018-Jun-15 08:30N 38°39' W 009°05'2 4.6
2018-Jun-15 08:01N 38°40' W 009°08'2 3.7
2018-Jun-15 07:30N 38°39' W 009°06'3 6.8
2018-Jun-15 07:00N 38°42' W 009°08'4 8.3
2018-Jun-15 06:31N 38°39' W 009°05'4 8.1
2018-Jun-15 06:00N 38°42' W 009°08'4 8.5
2018-Jun-15 05:31N 38°39' W 009°05'4 7.4
2018-Jun-15 05:00N 38°42' W 009°08'4 0.4
2018-Jun-14 20:10N 38°39' W 009°05'211.6
2018-Jun-14 20:00N 38°40' W 009°07'1 1.1
2018-Jun-14 19:31N 38°40' W 009°08'3 5.1
2018-Jun-14 19:00N 38°39' W 009°05'2 3.8
2018-Jun-14 18:30N 38°40' W 009°07'1 1.7
2018-Jun-14 18:00N 38°40' W 009°06'3 6.6
2018-Jun-14 17:30N 38°42' W 009°08'4 8.3
2018-Jun-14 17:01N 38°39' W 009°05'4 7.2
2018-Jun-14 16:30N 38°42' W 009°08'2 4.3
2018-Jun-14 16:00N 38°40' W 009°07'0 0.9
2018-Jun-14 15:30N 38°40' W 009°07'2 4.8
2018-Jun-14 15:00N 38°39' W 009°05'0 0.0
2018-Jun-14 14:30N 38°39' W 009°05'3 6.6
2018-Jun-14 14:00N 38°41' W 009°08'2 4.9
2018-Jun-14 13:30N 38°39' W 009°06'3 5.3
2018-Jun-14 13:00N 38°41' W 009°08'3 5.4
2018-Jun-14 12:30N 38°39' W 009°06'4 7.0
2018-Jun-14 12:00N 38°42' W 009°08'4 8.3
2018-Jun-14 11:31N 38°39' W 009°05'3 6.7
2018-Jun-14 11:00N 38°41' W 009°08'3 6.0
2018-Jun-14 10:30N 38°39' W 009°05'0 0.9
2018-Jun-14 10:00N 38°39' W 009°05'0 0.0
2018-Jun-14 09:30N 38°39' W 009°05'4 8.1
2018-Jun-14 09:00N 38°42' W 009°08'4 7.9
2018-Jun-14 08:30N 38°39' W 009°05'4 8.4
2018-Jun-14 08:00N 38°42' W 009°08'4 7.5
2018-Jun-14 07:30N 38°39' W 009°06'2 3.7
2018-Jun-14 07:00N 38°40' W 009°07'0 0.7
2018-Jun-14 06:30N 38°40' W 009°07'1 2.1
2018-Jun-14 06:00N 38°40' W 009°06'1 2.0
2018-Jun-14 05:30N 38°39' W 009°05'0 0.0
2018-Jun-13 16:41N 38°39' W 009°05'0 0.0
2018-Jun-11 15:47N 38°39' W 009°05'1 3.3
2018-Jun-11 15:30N 38°40' W 009°06'  
2018-Jun-08 18:59N 38°39' W 009°05'4 8.5
2018-Jun-08 18:30N 38°42' W 009°08'4 8.3
2018-Jun-08 18:00N 38°39' W 009°05'4 7.3
2018-Jun-08 17:30N 38°42' W 009°08'2 3.4
2018-Jun-08 17:01N 38°40' W 009°08'2 3.0
2018-Jun-08 16:30N 38°40' W 009°06'3 6.5
2018-Jun-08 16:00N 38°42' W 009°08'4 8.3
2018-Jun-08 15:31N 38°39' W 009°05'0 0.0
2018-Jun-08 15:00N 38°39' W 009°05'0 0.1
2018-Jun-08 13:10N 38°39' W 009°05'318.9
2018-Jun-08 13:00N 38°41' W 009°08'3 6.1
2018-Jun-08 12:30N 38°39' W 009°05'0 0.3
2018-Jun-08 12:00N 38°39' W 009°05'0 0.0
2018-Jun-08 11:30N 38°39' W 009°05'0 0.0
2018-Jun-08 11:00N 38°39' W 009°05'0 0.0
2018-Jun-08 10:30N 38°39' W 009°05'0 0.0
2018-Jun-08 10:00N 38°39' W 009°05'4 7.0
2018-Jun-08 09:30N 38°42' W 009°08'3 6.3
2018-Jun-08 09:00N 38°39' W 009°06'1 1.4
2018-Jun-08 08:30N 38°39' W 009°05'3 6.3
2018-Jun-08 08:01N 38°41' W 009°08'1 2.8
2018-Jun-08 07:31N 38°40' W 009°07'1 2.8
2018-Jun-08 07:00N 38°39' W 009°05'4 7.5
2018-Jun-08 06:31N 38°42' W 009°08'4 8.0
2018-Jun-08 05:59N 38°39' W 009°05'3 6.5
2018-Jun-08 05:30N 38°41' W 009°07'3 5.8
2018-Jun-08 05:00N 38°39' W 009°05'3 6.4
2018-Jun-08 04:30N 38°42' W 009°08'3 6.9
2018-Jun-08 04:01N 38°39' W 009°05'0 0.0
2018-Jun-08 03:31N 38°39' W 009°05'0 0.0
2018-Jun-08 03:00N 38°39' W 009°05'0 0.0
2018-Jun-08 02:30N 38°39' W 009°05'0 0.0
2018-Jun-08 02:00N 38°39' W 009°05'0 0.0
2018-Jun-08 01:29N 38°39' W 009°05'4 8.7
2018-Jun-08 01:00N 38°42' W 009°08'4 8.4
2018-Jun-08 00:31N 38°39' W 009°05'4 7.5
2018-Jun-07 23:57N 38°42' W 009°08'4 9.1
2018-Jun-07 23:30N 38°39' W 009°05'4 8.5
2018-Jun-07 23:00N 38°42' W 009°08'4 8.3
2018-Jun-07 22:30N 38°39' W 009°05'3 6.8
2018-Jun-07 22:00N 38°41' W 009°08'3 5.3
2018-Jun-07 21:30N 38°39' W 009°06'3 5.1
2018-Jun-07 21:01N 38°41' W 009°08'2 4.9
2018-Jun-07 20:30N 38°39' W 009°06'1 1.9
2018-Jun-07 20:00N 38°39' W 009°05'0 0.0
2018-Jun-07 19:30N 38°39' W 009°05'4 8.5
2018-Jun-07 19:01N 38°42' W 009°08'4 8.3
2018-Jun-07 18:30N 38°39' W 009°05'4 7.7
2018-Jun-07 18:01N 38°42' W 009°08'2 4.3
2018-Jun-07 17:30N 38°40' W 009°07'1 1.7
2018-Jun-07 17:00N 38°40' W 009°06'3 6.1
2018-Jun-07 16:30N 38°42' W 009°08'4 8.3
2018-Jun-07 16:00N 38°39' W 009°05'0 0.0
2018-Jun-07 10:22N 38°39' W 009°05'0 0.0
2018-Jun-07 10:00N 38°39' W 009°05'0 0.0
2018-Jun-07 09:30N 38°39' W 009°05'0 0.2
2018-Jun-07 09:01N 38°39' W 009°05'2 4.6
2018-Jun-07 08:31N 38°40' W 009°07'2 4.6
2018-Jun-07 08:00N 38°39' W 009°05'4 8.3
2018-Jun-07 07:30N 38°42' W 009°08'4 8.4
2018-Jun-07 07:01N 38°39' W 009°05'3 6.4
2018-Jun-07 06:30N 38°41' W 009°08'3 6.6
2018-Jun-07 06:01N 38°39' W 009°05'0 0.0
2018-Jun-06 19:59N 38°39' W 009°05'4 8.4
2018-Jun-06 19:30N 38°42' W 009°08'4 8.2
2018-Jun-06 19:00N 38°39' W 009°05'4 8.5
2018-Jun-06 18:31N 38°42' W 009°08'4 7.6
2018-Jun-06 18:00N 38°39' W 009°05'2 4.3
2018-Jun-06 17:30N 38°40' W 009°07'1 1.7
2018-Jun-06 17:00N 38°41' W 009°08'3 6.3
2018-Jun-06 16:30N 38°39' W 009°05'0 0.0
2018-Jun-06 16:00N 38°39' W 009°05'4 8.1
2018-Jun-06 15:30N 38°42' W 009°08'4 8.5
2018-Jun-06 15:01N 38°39' W 009°05'3 6.6
2018-Jun-06 14:31N 38°41' W 009°08'2 4.9
2018-Jun-06 14:00N 38°39' W 009°06'3 5.4
2018-Jun-06 13:30N 38°42' W 009°08'3 5.7
2018-Jun-06 13:00N 38°39' W 009°06'3 5.4
2018-Jun-06 12:30N 38°41' W 009°08'3 5.1
2018-Jun-06 12:00N 38°39' W 009°06'3 5.4
2018-Jun-06 11:30N 38°42' W 009°08'3 5.6
2018-Jun-06 11:00N 38°39' W 009°06'3 5.2
2018-Jun-06 10:31N 38°41' W 009°08'3 5.3
2018-Jun-06 10:00N 38°39' W 009°06'1 1.5
2018-Jun-06 09:30N 38°39' W 009°05'0 0.2
2018-Jun-06 09:01N 38°39' W 009°05'4 8.3
2018-Jun-06 08:30N 38°42' W 009°08'4 8.0
2018-Jun-06 07:59N 38°39' W 009°05'4 7.8
2018-Jun-06 07:30N 38°42' W 009°08'2 3.9
2018-Jun-06 07:01N 38°40' W 009°07'1 2.8
2018-Jun-06 06:30N 38°39' W 009°06'1 1.6
2018-Jun-06 05:58N 38°39' W 009°05'0 0.0
2018-Jun-06 05:30N 38°39' W 009°05'0 0.0
2018-Jun-05 19:12N 38°39' W 009°05'0 0.6
2018-Jun-05 19:00N 38°39' W 009°05'  

Dump ship's entire track history